Hernandez, Argentina
Current Conditions -  °F | °C
As of 3:00 PM on Thursday 23 Oct 2014 (Local Time) from SAAR Reporting Station
Clear Clear  
Wind Chill: 88°   Ceiling: Unl
Heat Index: 88°   Visibility: 6mi
Dew Point: 63°   Wind: 9mph
Humidity: 43%   Direction: 50°NE
Pressure: 29.91"   Gusts: NA
Location:  32.35°S, 60.03°W
Report Text: SAAR 231800Z 05008KT CAVOK 31/17 Q1013
Loading
Personal Weather Stations






























Interactive Weather Map
Tropical Storm Tracking
New forecast layout! Learn more

10-Day Weather Forecast

Advertisements
Track Severe Weather on mobile